createdAt,value
2023-05-14T00:01:18.983Z,12.05
2023-05-14T00:03:48.544Z,10.77
2023-05-14T00:06:15.730Z,10.32
2023-05-14T00:08:42.921Z,9.80
2023-05-14T00:11:09.999Z,9.82
2023-05-14T00:13:37.236Z,10.55
2023-05-14T00:16:04.576Z,10.98
2023-05-14T00:18:31.926Z,10.77
2023-05-14T00:20:59.100Z,9.68
2023-05-14T00:23:26.095Z,9.10
2023-05-14T00:25:53.108Z,9.90
2023-05-14T00:28:20.785Z,10.25
2023-05-14T00:30:47.802Z,10.25
2023-05-14T00:33:15.054Z,9.88
2023-05-14T00:35:42.135Z,10.57
2023-05-14T00:38:09.138Z,9.82
2023-05-14T00:40:36.325Z,10.95
2023-05-14T00:43:04.017Z,10.40
2023-05-14T00:45:31.364Z,11.68
2023-05-14T00:47:58.531Z,10.07
2023-05-14T00:50:26.333Z,10.38
2023-05-14T00:52:54.038Z,10.95
2023-05-14T00:55:22.769Z,10.60
2023-05-14T00:57:51.214Z,11.40
2023-05-14T01:00:21.762Z,10.80
2023-05-14T01:02:49.056Z,11.57
2023-05-14T01:05:16.252Z,11.18
2023-05-14T01:07:56.102Z,10.93
2023-05-14T01:10:33.161Z,10.15
2023-05-14T01:13:07.375Z,9.93
2023-05-14T01:15:36.523Z,10.32
2023-05-14T01:18:09.751Z,10.77
2023-05-14T01:20:37.157Z,10.55
2023-05-14T01:23:04.198Z,11.05
2023-05-14T01:25:31.983Z,11.02
2023-05-14T01:28:08.736Z,10.60
2023-05-14T01:30:40.540Z,10.25
2023-05-14T01:33:11.431Z,10.60
2023-05-14T01:35:38.820Z,10.50
2023-05-14T01:38:09.454Z,10.60
2023-05-14T01:40:37.653Z,11.27
2023-05-14T01:43:05.327Z,10.65
2023-05-14T01:45:36.403Z,11.02
2023-05-14T01:48:04.972Z,11.45
2023-05-14T01:50:32.017Z,11.68
2023-05-14T01:52:59.013Z,11.00
2023-05-14T01:55:26.038Z,11.65
2023-05-14T01:57:53.513Z,12.07
2023-05-14T02:00:21.422Z,11.30
2023-05-14T02:02:48.731Z,11.98
2023-05-14T02:05:15.776Z,11.20
2023-05-14T02:07:45.042Z,11.23
2023-05-14T02:10:14.364Z,11.55
2023-05-14T02:12:41.523Z,11.77
2023-05-14T02:15:11.229Z,11.25
2023-05-14T02:17:38.492Z,11.15
2023-05-14T02:20:06.577Z,11.30
2023-05-14T02:22:33.570Z,10.93
2023-05-14T02:25:01.368Z,10.82
2023-05-14T02:27:28.454Z,11.27
2023-05-14T02:29:56.865Z,10.60
2023-05-14T02:32:23.908Z,11.18
2023-05-14T02:34:51.073Z,10.82
2023-05-14T02:37:18.384Z,11.55
2023-05-14T02:39:45.555Z,12.18
2023-05-14T02:42:12.483Z,10.27
2023-05-14T02:44:42.562Z,10.63
2023-05-14T02:47:09.712Z,10.85
2023-05-14T02:49:36.792Z,12.10
2023-05-14T02:52:03.891Z,11.30
2023-05-14T02:54:31.922Z,12.55
2023-05-14T02:56:58.921Z,12.77
2023-05-14T02:59:25.947Z,12.85
2023-05-14T03:01:53.468Z,11.98
2023-05-14T03:04:20.845Z,14.52
2023-05-14T03:06:47.816Z,11.30
2023-05-14T03:09:14.914Z,12.55
2023-05-14T03:11:41.973Z,13.57
2023-05-14T03:14:09.002Z,12.48
2023-05-14T03:16:36.089Z,12.98
2023-05-14T03:19:03.219Z,12.90
2023-05-14T03:21:30.266Z,13.40
2023-05-14T03:23:57.282Z,12.02
2023-05-14T03:26:24.366Z,13.30
2023-05-14T03:28:51.414Z,11.63
2023-05-14T03:31:18.513Z,12.60
2023-05-14T03:33:45.697Z,13.20
2023-05-14T03:36:12.650Z,11.73
2023-05-14T03:38:39.806Z,12.48
2023-05-14T03:41:06.889Z,12.35
2023-05-14T03:43:33.925Z,12.63
2023-05-14T03:46:00.896Z,11.85
2023-05-14T03:48:28.014Z,13.48
2023-05-14T03:50:55.341Z,13.07
2023-05-14T03:53:22.318Z,13.43
2023-05-14T03:55:49.309Z,13.82
2023-05-14T03:58:16.276Z,14.00
2023-05-14T04:00:44.244Z,14.32
2023-05-14T04:03:12.115Z,13.30
2023-05-14T04:05:39.270Z,14.27
2023-05-14T04:08:06.344Z,13.65
2023-05-14T04:10:33.413Z,13.57
2023-05-14T04:13:01.133Z,13.23
2023-05-14T04:15:28.247Z,13.43
2023-05-14T04:17:55.301Z,13.27
2023-05-14T04:20:22.416Z,14.02
2023-05-14T04:22:49.480Z,14.98
2023-05-14T04:25:16.716Z,14.30
2023-05-14T04:27:43.793Z,13.45
2023-05-14T04:30:11.205Z,12.77
2023-05-14T04:32:38.328Z,13.88
2023-05-14T04:35:06.222Z,13.32
2023-05-14T04:37:33.452Z,13.73
2023-05-14T04:40:01.195Z,12.70
2023-05-14T04:42:28.149Z,12.13
2023-05-14T04:44:55.111Z,12.50
2023-05-14T04:47:22.461Z,12.63
2023-05-14T04:49:49.528Z,12.45
2023-05-14T04:52:16.724Z,13.57
2023-05-14T04:54:43.814Z,12.55
2023-05-14T04:57:10.799Z,13.15
2023-05-14T04:59:37.829Z,12.55
2023-05-14T05:02:05.084Z,13.07
2023-05-14T05:04:32.295Z,12.63
2023-05-14T05:06:59.261Z,11.35
2023-05-14T05:09:26.305Z,11.70
2023-05-14T05:11:53.318Z,11.60
2023-05-14T05:14:20.306Z,11.63
2023-05-14T05:16:47.947Z,12.30
2023-05-14T05:19:15.044Z,12.20
2023-05-14T05:21:42.125Z,12.38
2023-05-14T05:24:09.074Z,11.25
2023-05-14T05:26:37.193Z,11.13
2023-05-14T05:29:05.134Z,12.02
2023-05-14T05:31:34.761Z,11.93
2023-05-14T05:34:04.105Z,11.98
2023-05-14T05:36:31.882Z,11.90
2023-05-14T05:38:58.822Z,11.82
2023-05-14T05:41:26.912Z,11.90
2023-05-14T05:43:53.987Z,12.20
2023-05-14T05:46:20.975Z,11.52
2023-05-14T05:48:48.024Z,13.43
2023-05-14T05:51:15.156Z,12.68
2023-05-14T05:53:42.214Z,12.32
2023-05-14T05:56:09.389Z,11.23
2023-05-14T05:58:36.441Z,12.00
2023-05-14T06:01:03.379Z,11.18
2023-05-14T06:03:30.342Z,10.50
2023-05-14T06:05:57.383Z,11.15
2023-05-14T06:08:24.637Z,11.00
2023-05-14T06:10:51.664Z,10.90
2023-05-14T06:13:18.648Z,10.13
2023-05-14T06:15:45.941Z,10.68
2023-05-14T06:18:12.946Z,10.25
2023-05-14T06:20:41.836Z,10.30
2023-05-14T06:23:08.878Z,10.25
2023-05-14T06:25:35.855Z,10.70
2023-05-14T06:28:02.851Z,10.63
2023-05-14T06:30:29.857Z,9.63
2023-05-14T06:32:57.439Z,10.48
2023-05-14T06:35:24.426Z,10.55
2023-05-14T06:37:51.770Z,10.43
2023-05-14T06:40:19.362Z,11.45
2023-05-14T06:42:46.334Z,11.48
2023-05-14T06:45:13.440Z,11.55
2023-05-14T06:47:40.607Z,11.77
2023-05-14T06:50:10.175Z,11.45
2023-05-14T06:52:38.217Z,11.38
2023-05-14T06:55:05.700Z,10.95
2023-05-14T06:57:34.423Z,10.40
2023-05-14T07:00:03.192Z,10.57
2023-05-14T07:02:30.984Z,11.85
2023-05-14T07:04:58.992Z,11.50
2023-05-14T07:07:26.250Z,10.75
2023-05-14T07:09:53.471Z,11.10
2023-05-14T07:12:20.626Z,11.52
2023-05-14T07:14:47.613Z,11.68
2023-05-14T07:17:14.617Z,11.13
2023-05-14T07:19:41.751Z,10.73
2023-05-14T07:22:08.889Z,11.82
2023-05-14T07:24:36.030Z,11.63
2023-05-14T07:27:03.381Z,11.07
2023-05-14T07:29:31.262Z,11.15
2023-05-14T07:31:58.246Z,11.07
2023-05-14T07:34:25.366Z,11.20
2023-05-14T07:36:52.509Z,11.65
2023-05-14T07:39:19.660Z,12.68
2023-05-14T07:41:46.708Z,12.05
2023-05-14T07:44:13.773Z,12.10
2023-05-14T07:46:41.272Z,12.40
2023-05-14T07:49:08.460Z,12.88
2023-05-14T07:51:35.667Z,12.30
2023-05-14T07:54:02.659Z,12.90
2023-05-14T07:56:29.785Z,11.93
2023-05-14T07:58:56.892Z,11.82
2023-05-14T08:01:24.150Z,12.27
2023-05-14T08:03:51.335Z,12.30
2023-05-14T08:06:18.468Z,12.38
2023-05-14T08:08:45.775Z,11.98
2023-05-14T08:11:15.468Z,12.63
2023-05-14T08:13:42.578Z,12.73
2023-05-14T08:16:09.700Z,12.02
2023-05-14T08:18:36.785Z,11.75
2023-05-14T08:21:04.085Z,11.23
2023-05-14T08:23:31.257Z,11.80
2023-05-14T08:25:59.540Z,12.57
2023-05-14T08:28:26.594Z,11.93
2023-05-14T08:30:53.991Z,11.23
2023-05-14T08:33:21.090Z,11.45
2023-05-14T08:35:48.209Z,12.45
2023-05-14T08:38:15.284Z,11.93
2023-05-14T08:40:42.871Z,13.50
2023-05-14T08:43:12.592Z,12.43
2023-05-14T08:45:40.755Z,12.48
2023-05-14T08:48:11.745Z,11.80
2023-05-14T08:50:38.843Z,12.10
2023-05-14T08:53:07.317Z,11.90
2023-05-14T08:55:35.658Z,11.13
2023-05-14T08:58:02.785Z,11.88
2023-05-14T09:00:30.066Z,11.38
2023-05-14T09:02:58.718Z,12.32
2023-05-14T09:05:26.355Z,11.75
2023-05-14T09:07:53.566Z,12.43
2023-05-14T09:10:21.837Z,11.85
2023-05-14T09:12:49.101Z,11.75
2023-05-14T09:15:16.326Z,11.50
2023-05-14T09:17:44.520Z,11.73
2023-05-14T09:20:13.416Z,11.27
2023-05-14T09:22:40.933Z,12.57
2023-05-14T09:25:11.367Z,11.65
2023-05-14T09:27:39.354Z,12.38
2023-05-14T09:30:08.516Z,12.00
2023-05-14T09:32:37.527Z,12.55
2023-05-14T09:35:10.937Z,12.07
2023-05-14T09:37:38.129Z,12.25
2023-05-14T09:40:09.395Z,11.93
2023-05-14T09:42:36.648Z,12.18
2023-05-14T09:45:05.430Z,11.45
2023-05-14T09:47:33.234Z,14.27
2023-05-14T09:50:00.532Z,12.52
2023-05-14T09:52:28.110Z,12.88
2023-05-14T09:54:55.804Z,12.15
2023-05-14T09:57:23.639Z,11.55
2023-05-14T09:59:51.005Z,11.95
2023-05-14T10:02:24.613Z,11.07
2023-05-14T10:04:54.407Z,12.07
2023-05-14T10:07:27.013Z,11.23
2023-05-14T10:10:00.209Z,11.23
2023-05-14T10:12:31.266Z,10.65
2023-05-14T10:15:01.961Z,10.32
2023-05-14T10:17:32.482Z,11.63
2023-05-14T10:20:03.029Z,11.70
2023-05-14T10:22:35.190Z,11.50
2023-05-14T10:25:04.295Z,11.10
2023-05-14T10:27:32.266Z,11.93
2023-05-14T10:29:59.522Z,11.02
2023-05-14T10:32:26.991Z,10.23
2023-05-14T10:34:54.525Z,10.98
2023-05-14T10:37:25.882Z,11.65
2023-05-14T10:39:54.244Z,11.00
2023-05-14T10:42:24.646Z,11.85
2023-05-14T10:44:57.102Z,10.82
2023-05-14T10:47:26.594Z,10.50
2023-05-14T10:49:56.341Z,11.38
2023-05-14T10:52:26.134Z,11.27
2023-05-14T10:54:56.664Z,12.45
2023-05-14T10:57:26.767Z,11.30
2023-05-14T10:59:56.148Z,11.48
2023-05-14T11:02:27.288Z,10.38
2023-05-14T11:04:59.437Z,11.38
2023-05-14T11:07:33.020Z,10.93
2023-05-14T11:10:04.782Z,10.10
2023-05-14T11:12:32.901Z,9.93
2023-05-14T11:15:01.294Z,10.80
2023-05-14T11:17:29.853Z,10.07
2023-05-14T11:19:57.786Z,11.27
2023-05-14T11:22:25.662Z,10.88
2023-05-14T11:24:53.032Z,11.00
2023-05-14T11:27:21.895Z,10.88
2023-05-14T11:29:49.551Z,10.32
2023-05-14T11:32:17.679Z,9.90
2023-05-14T11:34:46.510Z,10.15
2023-05-14T11:37:15.629Z,10.43
2023-05-14T11:39:49.424Z,10.55
2023-05-14T11:42:19.191Z,11.68
2023-05-14T11:44:49.362Z,11.88
2023-05-14T11:47:18.724Z,12.23
2023-05-14T11:49:46.856Z,11.25
2023-05-14T11:52:16.009Z,11.30
2023-05-14T11:54:44.408Z,10.88
2023-05-14T11:57:13.900Z,11.15
2023-05-14T11:59:41.598Z,10.63
2023-05-14T12:02:13.263Z,10.82
2023-05-14T12:04:42.223Z,10.27
2023-05-14T12:07:13.116Z,9.35
2023-05-14T12:09:45.270Z,9.02
2023-05-14T12:12:13.524Z,8.32
2023-05-14T12:14:43.261Z,8.23
2023-05-14T12:17:13.847Z,8.07
2023-05-14T12:19:43.227Z,7.93
2023-05-14T12:22:14.270Z,8.55
2023-05-14T12:24:41.604Z,9.13
2023-05-14T12:27:10.520Z,8.13
2023-05-14T12:29:40.022Z,8.55
2023-05-14T12:32:10.214Z,7.75
2023-05-14T12:34:39.159Z,8.48
2023-05-14T12:37:07.670Z,8.40
2023-05-14T12:39:35.451Z,7.72
2023-05-14T12:42:02.702Z,8.32
2023-05-14T12:44:29.923Z,8.25
2023-05-14T12:46:58.068Z,8.35
2023-05-14T12:49:25.451Z,8.13
2023-05-14T12:52:04.463Z,7.88
2023-05-14T12:54:43.024Z,6.55
2023-05-14T12:57:13.348Z,5.85
2023-05-14T12:59:41.534Z,6.78
2023-05-14T13:02:09.045Z,6.47
2023-05-14T13:04:37.604Z,6.18
2023-05-14T13:07:05.155Z,6.10
2023-05-14T13:09:32.446Z,5.95
2023-05-14T13:11:59.989Z,5.93
2023-05-14T13:14:27.217Z,6.53
2023-05-14T13:16:54.644Z,5.90
2023-05-14T13:19:21.969Z,6.40
2023-05-14T13:21:49.187Z,5.45
2023-05-14T13:24:17.792Z,5.50
2023-05-14T13:26:45.346Z,5.72
2023-05-14T13:29:12.861Z,5.80
2023-05-14T13:31:40.103Z,5.78
2023-05-14T13:34:07.346Z,6.18
2023-05-14T13:36:39.893Z,6.97
2023-05-14T13:39:07.548Z,5.75
2023-05-14T13:41:36.164Z,6.30
2023-05-14T13:44:03.451Z,5.50
2023-05-14T13:46:30.798Z,4.65
2023-05-14T13:48:58.192Z,5.72
2023-05-14T13:51:25.924Z,4.43
2023-05-14T13:56:21.928Z,4.93
2023-05-14T13:58:49.643Z,4.82
2023-05-14T14:01:17.126Z,5.50
2023-05-14T14:03:44.386Z,5.35
2023-05-14T14:06:11.614Z,4.72
2023-05-14T14:08:39.040Z,5.13
2023-05-14T14:11:06.356Z,5.20
2023-05-14T14:13:33.688Z,4.90
2023-05-14T14:16:03.433Z,4.72
2023-05-14T14:18:30.790Z,5.72
2023-05-14T14:20:58.264Z,6.40
2023-05-14T14:23:25.670Z,5.80
2023-05-14T14:25:52.900Z,5.63
2023-05-14T14:28:20.079Z,5.70
2023-05-14T14:30:47.615Z,5.93
2023-05-14T14:33:14.977Z,5.13
2023-05-14T14:35:42.291Z,6.28
2023-05-14T14:38:09.895Z,6.45
2023-05-14T14:40:39.286Z,6.40
2023-05-14T14:43:07.136Z,6.50
2023-05-14T14:45:34.737Z,6.63
2023-05-14T14:48:08.417Z,6.25
2023-05-14T14:50:35.675Z,6.45
2023-05-14T14:53:02.927Z,6.50
2023-05-14T14:55:30.213Z,6.22
2023-05-14T14:57:57.594Z,5.22
2023-05-14T15:00:24.830Z,6.07
2023-05-14T15:02:52.154Z,5.50
2023-05-14T15:05:19.731Z,6.05
2023-05-14T15:07:47.224Z,6.10
2023-05-14T15:10:14.901Z,5.93
2023-05-14T15:12:44.340Z,5.93
2023-05-14T15:15:11.779Z,6.28
2023-05-14T15:17:39.338Z,5.85
2023-05-14T15:20:07.772Z,5.10
2023-05-14T15:22:35.056Z,5.80
2023-05-14T15:25:02.434Z,6.22
2023-05-14T15:27:29.598Z,5.57
2023-05-14T15:29:56.926Z,6.53
2023-05-14T15:32:27.575Z,5.78
2023-05-14T15:34:56.138Z,6.28
2023-05-14T15:37:25.309Z,5.50
2023-05-14T15:39:52.686Z,5.75
2023-05-14T15:42:22.967Z,6.07
2023-05-14T15:44:50.442Z,6.05
2023-05-14T15:47:17.730Z,6.22
2023-05-14T15:49:45.009Z,6.82
2023-05-14T15:52:12.383Z,7.15
2023-05-14T15:54:39.839Z,7.95
2023-05-14T15:57:07.170Z,7.13
2023-05-14T15:59:37.325Z,6.88
2023-05-14T16:02:04.720Z,6.15
2023-05-14T16:04:32.211Z,6.35
2023-05-14T16:07:03.106Z,6.13
2023-05-14T16:09:30.857Z,6.07
2023-05-14T16:11:58.103Z,6.85
2023-05-14T16:14:25.398Z,6.35
2023-05-14T16:16:54.242Z,5.68
2023-05-14T16:19:22.114Z,5.78
2023-05-14T16:21:49.295Z,6.03
2023-05-14T16:24:18.852Z,5.75
2023-05-14T16:26:46.308Z,5.53
2023-05-14T16:29:13.767Z,4.32
2023-05-14T16:31:41.290Z,3.03
2023-05-14T16:34:08.457Z,2.58
2023-05-14T16:36:35.774Z,3.47
2023-05-14T16:41:33.163Z,2.80
2023-05-14T16:44:00.448Z,2.63
2023-05-14T16:46:29.641Z,2.38
2023-05-14T16:48:57.412Z,1.58
2023-05-14T16:51:24.724Z,1.35
2023-05-14T16:53:52.299Z,1.52
2023-05-14T16:56:19.858Z,1.52
2023-05-14T16:58:47.057Z,1.20
2023-05-14T17:01:14.246Z,1.70
2023-05-14T17:03:42.152Z,1.35
2023-05-14T17:06:10.576Z,1.40
2023-05-14T17:08:37.818Z,1.63
2023-05-14T17:11:06.131Z,2.55
2023-05-14T17:13:34.146Z,2.40
2023-05-14T17:16:03.995Z,1.80
2023-05-14T17:18:33.030Z,2.55
2023-05-14T17:21:00.450Z,2.08
2023-05-14T17:23:27.641Z,4.10
2023-05-14T17:25:56.918Z,2.67
2023-05-14T17:28:24.891Z,2.53
2023-05-14T17:30:52.520Z,3.38
2023-05-14T17:33:19.761Z,2.90
2023-05-14T17:35:47.173Z,2.38
2023-05-14T17:38:14.582Z,2.72
2023-05-14T17:40:41.945Z,2.35
2023-05-14T17:43:09.469Z,2.85
2023-05-14T17:45:50.213Z,3.13
2023-05-14T17:48:20.932Z,3.00
2023-05-14T17:50:48.219Z,2.80
2023-05-14T17:53:15.755Z,2.90
2023-05-14T17:55:44.038Z,3.40
2023-05-14T17:58:13.767Z,2.80
2023-05-14T18:00:41.709Z,3.40
2023-05-14T18:03:10.791Z,3.85
2023-05-14T18:05:38.221Z,3.35
2023-05-14T18:08:06.054Z,3.25
2023-05-14T18:10:33.238Z,3.17
2023-05-14T18:13:02.366Z,2.65
2023-05-14T18:15:31.801Z,2.67
2023-05-14T18:17:59.488Z,2.47
2023-05-14T18:20:26.833Z,2.20
2023-05-14T18:22:54.011Z,2.10
2023-05-14T18:25:21.200Z,2.03
2023-05-14T18:27:48.482Z,1.45
2023-05-14T18:30:16.454Z,1.80
2023-05-14T18:32:45.180Z,1.50
2023-05-14T18:35:15.978Z,1.50
2023-05-14T18:37:43.290Z,1.67
2023-05-14T18:40:11.602Z,1.80
2023-05-14T18:42:39.040Z,1.95
2023-05-14T18:45:06.872Z,1.63
2023-05-14T18:47:34.903Z,1.83
2023-05-14T18:50:02.355Z,1.33
2023-05-14T18:52:30.020Z,1.70
2023-05-14T18:54:57.398Z,1.45
2023-05-14T18:57:27.735Z,1.40
2023-05-14T18:59:57.617Z,1.75
2023-05-14T19:02:24.939Z,1.92
2023-05-14T19:04:53.256Z,1.77
2023-05-14T19:07:21.876Z,1.88
2023-05-14T19:09:49.782Z,1.83
2023-05-14T19:12:17.420Z,1.52
2023-05-14T19:14:44.785Z,1.90
2023-05-14T19:17:12.192Z,1.92
2023-05-14T19:19:39.816Z,1.42
2023-05-14T19:22:07.518Z,1.40
2023-05-14T19:24:34.870Z,1.42
2023-05-14T19:27:02.273Z,1.60
2023-05-14T19:29:29.569Z,1.20
2023-05-14T19:31:56.999Z,1.48
2023-05-14T19:34:24.562Z,1.30
2023-05-14T19:36:51.852Z,1.42
2023-05-14T19:39:19.157Z,1.10
2023-05-14T19:41:46.420Z,1.00
2023-05-14T19:44:13.736Z,0.90
2023-05-14T19:46:41.118Z,0.90
2023-05-14T19:49:08.388Z,0.80
2023-05-14T19:51:35.595Z,0.90
2023-05-14T19:54:02.931Z,1.00
2023-05-14T19:56:30.358Z,1.00
2023-05-14T19:58:57.583Z,0.90
2023-05-14T20:01:24.777Z,0.75
2023-05-14T20:03:52.018Z,0.75
2023-05-14T20:06:19.311Z,0.80
2023-05-14T20:08:46.887Z,0.80
2023-05-14T20:11:15.970Z,0.88
2023-05-14T20:13:43.331Z,0.80
2023-05-14T20:16:10.694Z,0.80
2023-05-14T20:18:38.155Z,0.70
2023-05-14T20:21:05.938Z,0.85
2023-05-14T20:23:34.110Z,0.82
2023-05-14T20:26:03.033Z,0.90
2023-05-14T20:28:31.047Z,0.63
2023-05-14T20:31:00.581Z,0.80
2023-05-14T20:33:29.403Z,0.60
2023-05-14T20:35:57.081Z,0.57
2023-05-14T20:38:26.075Z,0.70
2023-05-14T20:40:53.340Z,0.88
2023-05-14T20:43:20.764Z,0.80
2023-05-14T20:45:48.104Z,0.70
2023-05-14T20:48:16.718Z,0.70
2023-05-14T20:50:44.711Z,0.60
2023-05-14T20:53:12.037Z,0.60
2023-05-14T20:55:39.860Z,0.55
2023-05-14T20:58:07.381Z,0.80
2023-05-14T21:00:34.905Z,0.80
2023-05-14T21:03:02.253Z,0.70
2023-05-14T21:05:29.776Z,0.60
2023-05-14T21:07:57.225Z,0.43
2023-05-14T21:10:24.727Z,0.50
2023-05-14T21:12:52.708Z,0.40
2023-05-14T21:15:19.894Z,0.60
2023-05-14T21:17:47.299Z,0.85
2023-05-14T21:20:15.840Z,0.50
2023-05-14T21:22:43.078Z,0.50
2023-05-14T21:25:10.812Z,0.75
2023-05-14T21:27:38.163Z,0.63
2023-05-14T21:30:06.407Z,0.55
2023-05-14T21:32:33.676Z,0.70
2023-05-14T21:35:00.993Z,0.70
2023-05-14T21:37:28.446Z,0.75
2023-05-14T21:39:55.711Z,0.60
2023-05-14T21:42:22.952Z,0.50
2023-05-14T21:44:50.391Z,0.52
2023-05-14T21:47:23.080Z,0.50
2023-05-14T21:49:52.916Z,0.57
2023-05-14T21:52:21.760Z,0.60
2023-05-14T21:54:49.067Z,0.60
2023-05-14T21:57:16.453Z,0.52
2023-05-14T21:59:43.713Z,0.70
2023-05-14T22:02:10.981Z,0.60
2023-05-14T22:04:38.470Z,0.73
2023-05-14T22:07:05.766Z,0.40
2023-05-14T22:09:32.964Z,0.63
2023-05-14T22:12:00.317Z,0.70
2023-05-14T22:14:27.670Z,0.60
2023-05-14T22:16:55.254Z,0.65
2023-05-14T22:19:23.028Z,0.52
2023-05-14T22:21:50.282Z,0.50
2023-05-14T22:24:17.599Z,0.50
2023-05-14T22:26:44.900Z,0.70
2023-05-14T22:29:12.176Z,0.52
2023-05-14T22:31:39.578Z,0.55
2023-05-14T22:34:06.967Z,0.70
2023-05-14T22:36:34.823Z,0.70
2023-05-14T22:39:02.205Z,0.70
2023-05-14T22:41:29.878Z,0.60
2023-05-14T22:43:57.238Z,0.57
2023-05-14T22:46:24.777Z,0.52
2023-05-14T22:48:52.137Z,0.60
2023-05-14T22:51:19.464Z,0.52
2023-05-14T22:53:47.639Z,0.70
2023-05-14T22:56:15.847Z,0.60
2023-05-14T22:58:43.017Z,0.90
2023-05-14T23:01:10.368Z,0.60
2023-05-14T23:03:37.572Z,0.60
2023-05-14T23:06:05.039Z,0.47
2023-05-14T23:08:32.298Z,0.57
2023-05-14T23:10:59.482Z,0.70
2023-05-14T23:13:26.823Z,0.80
2023-05-14T23:15:54.196Z,0.60
2023-05-14T23:18:21.681Z,0.70
2023-05-14T23:20:49.221Z,0.60
2023-05-14T23:23:16.457Z,0.75
2023-05-14T23:25:43.809Z,0.70
2023-05-14T23:28:11.308Z,0.70
2023-05-14T23:30:38.565Z,0.93
2023-05-14T23:33:06.139Z,0.80
2023-05-14T23:35:33.491Z,0.88
2023-05-14T23:38:00.675Z,0.95
2023-05-14T23:40:27.839Z,0.80
2023-05-14T23:42:55.155Z,0.90
2023-05-14T23:45:22.545Z,0.90
2023-05-14T23:47:50.158Z,0.70
2023-05-14T23:50:17.592Z,0.90
2023-05-14T23:52:44.829Z,0.90
2023-05-14T23:55:12.126Z,0.85
2023-05-14T23:57:39.821Z,0.90
